Terminal Aerodrome Forecast
Issued by NWS Wilmington, OH

Current Version | Previous Version | Text Only | Print | Product List | Glossary Off
Versions: 1 2 3 4 5 6 7 8 9 10 11 12 13 14 15 16 17 18 19

000
FTUS41 KILN 151133
TAFDAY
TAF
KDAY 151133Z 1512/1612 15007KT P6SM OVC200
     FM151500 17010G20KT P6SM OVC080
     FM151800 19014G24KT 3SM -SHRA BR OVC025
     FM152100 21014G24KT 5SM -SHRA BR OVC006
     FM152300 22012G18KT P6SM OVC006
     FM160300 27011KT P6SM OVC012=

USA.gov is the U.S. government's official web portal to all federal, state and local government web resources and services.